createdAt,value
2022-10-23T00:01:29.067Z,15.01
2022-10-23T00:04:02.025Z,15.51
2022-10-23T00:06:30.348Z,14.96
2022-10-23T00:08:58.123Z,15.28
2022-10-23T00:11:28.539Z,15.27
2022-10-23T00:13:58.377Z,15.47
2022-10-23T00:16:26.801Z,14.87
2022-10-23T00:18:54.388Z,14.54
2022-10-23T00:21:22.033Z,14.06
2022-10-23T00:23:51.258Z,15.19
2022-10-23T00:26:18.838Z,14.77
2022-10-23T00:28:49.275Z,15.40
2022-10-23T00:31:17.904Z,15.53
2022-10-23T00:33:45.665Z,15.63
2022-10-23T00:36:14.842Z,15.71
2022-10-23T00:38:44.334Z,15.39
2022-10-23T00:41:38.036Z,15.57
2022-10-23T00:44:09.246Z,15.77
2022-10-23T00:46:38.075Z,15.73
2022-10-23T00:49:07.511Z,15.72
2022-10-23T00:51:45.310Z,15.52
2022-10-23T00:54:29.681Z,15.68
2022-10-23T00:56:59.597Z,15.21
2022-10-23T00:59:27.650Z,15.43
2022-10-23T01:01:55.463Z,15.56
2022-10-23T01:04:24.195Z,14.84
2022-10-23T01:07:22.265Z,15.45
2022-10-23T01:10:04.111Z,15.48
2022-10-23T01:12:45.802Z,15.28
2022-10-23T01:15:22.256Z,14.63
2022-10-23T01:18:04.523Z,15.24
2022-10-23T01:20:40.005Z,14.89
2022-10-23T01:23:11.544Z,14.96
2022-10-23T01:25:58.309Z,14.63
2022-10-23T01:28:30.812Z,15.17
2022-10-23T01:30:59.973Z,15.11
2022-10-23T01:33:39.544Z,15.04
2022-10-23T01:36:12.795Z,15.12
2022-10-23T01:38:45.963Z,14.99
2022-10-23T01:41:18.357Z,15.19
2022-10-23T01:43:53.678Z,15.09
2022-10-23T01:46:21.203Z,15.21
2022-10-23T01:48:52.948Z,15.09
2022-10-23T01:51:22.409Z,15.12
2022-10-23T01:53:51.245Z,15.17
2022-10-23T01:56:31.922Z,15.22
2022-10-23T01:59:03.958Z,15.22
2022-10-23T02:01:33.309Z,15.29
2022-10-23T02:04:03.684Z,15.23
2022-10-23T02:06:31.800Z,15.25
2022-10-23T02:08:59.279Z,15.30
2022-10-23T02:11:27.630Z,15.31
2022-10-23T02:14:24.706Z,15.31
2022-10-23T02:16:59.215Z,15.44
2022-10-23T02:19:50.941Z,15.47
2022-10-23T02:22:37.823Z,15.43
2022-10-23T02:25:11.627Z,15.27
2022-10-23T02:27:48.074Z,15.38
2022-10-23T02:30:18.090Z,15.21
2022-10-23T02:32:50.317Z,15.35
2022-10-23T02:35:19.904Z,15.28
2022-10-23T02:37:58.927Z,15.32
2022-10-23T02:40:32.284Z,15.33
2022-10-23T02:43:14.532Z,15.35
2022-10-23T02:46:02.767Z,15.31
2022-10-23T02:48:40.112Z,15.25
2022-10-23T02:51:15.333Z,15.24
2022-10-23T02:53:54.594Z,15.20
2022-10-23T02:56:36.654Z,15.19
2022-10-23T02:59:15.667Z,15.11
2022-10-23T03:01:52.115Z,15.15
2022-10-23T03:04:24.172Z,15.06
2022-10-23T03:06:51.848Z,15.10
2022-10-23T03:09:19.337Z,15.14
2022-10-23T03:11:47.021Z,14.99
2022-10-23T03:14:14.635Z,15.05
2022-10-23T03:16:42.049Z,15.03
2022-10-23T03:21:41.220Z,15.16
2022-10-23T03:24:09.186Z,15.21
2022-10-23T03:26:37.893Z,15.11
2022-10-23T03:29:05.587Z,15.14
2022-10-23T03:31:36.305Z,15.20
2022-10-23T03:34:09.986Z,15.23
2022-10-23T03:36:38.500Z,15.22
2022-10-23T03:39:06.370Z,15.17
2022-10-23T03:41:33.829Z,15.25
2022-10-23T03:44:01.351Z,15.24
2022-10-23T03:46:29.144Z,15.25
2022-10-23T03:48:59.645Z,15.22
2022-10-23T03:51:27.150Z,15.21
2022-10-23T03:53:55.006Z,15.17
2022-10-23T03:56:22.752Z,15.13
2022-10-23T03:58:50.182Z,14.97
2022-10-23T04:01:17.967Z,14.86
2022-10-23T04:03:45.748Z,14.96
2022-10-23T04:06:13.274Z,14.91
2022-10-23T04:08:43.272Z,14.95
2022-10-23T04:11:11.942Z,14.96
2022-10-23T04:13:40.391Z,14.88
2022-10-23T04:16:08.026Z,14.91
2022-10-23T04:18:35.740Z,14.77
2022-10-23T04:21:03.670Z,14.80
2022-10-23T04:23:31.092Z,14.85
2022-10-23T04:25:58.960Z,14.62
2022-10-23T04:28:26.847Z,14.62
2022-10-23T04:30:54.342Z,14.56
2022-10-23T04:33:22.162Z,14.61
2022-10-23T04:35:49.826Z,14.68
2022-10-23T04:38:17.423Z,14.67
2022-10-23T04:40:45.152Z,14.65
2022-10-23T04:43:12.790Z,14.66
2022-10-23T04:45:40.422Z,14.62
2022-10-23T04:48:09.473Z,14.65
2022-10-23T04:50:38.607Z,14.71
2022-10-23T04:53:06.120Z,14.54
2022-10-23T04:55:34.424Z,14.70
2022-10-23T04:58:04.670Z,14.70
2022-10-23T05:00:32.726Z,14.74
2022-10-23T05:03:01.402Z,14.73
2022-10-23T05:05:30.311Z,14.79
2022-10-23T05:07:57.861Z,14.77
2022-10-23T05:10:26.459Z,14.79
2022-10-23T05:12:54.490Z,14.70
2022-10-23T05:15:21.965Z,14.75
2022-10-23T05:17:54.187Z,14.68
2022-10-23T05:20:23.618Z,14.70
2022-10-23T05:22:52.624Z,14.58
2022-10-23T05:25:20.861Z,14.61
2022-10-23T05:27:48.645Z,14.41
2022-10-23T05:30:16.718Z,14.46
2022-10-23T05:32:44.721Z,14.45
2022-10-23T05:35:16.462Z,14.42
2022-10-23T05:37:48.283Z,14.39
2022-10-23T05:40:18.028Z,14.04
2022-10-23T05:42:48.658Z,14.18
2022-10-23T05:45:16.579Z,14.41
2022-10-23T05:47:45.247Z,14.45
2022-10-23T05:50:13.267Z,14.37
2022-10-23T05:52:47.503Z,14.44
2022-10-23T05:55:16.652Z,14.37
2022-10-23T05:57:45.092Z,14.25
2022-10-23T06:00:13.812Z,14.32
2022-10-23T06:02:41.414Z,14.21
2022-10-23T06:05:10.047Z,14.06
2022-10-23T06:07:39.361Z,14.06
2022-10-23T06:10:07.312Z,14.23
2022-10-23T06:12:35.095Z,14.28
2022-10-23T06:15:02.580Z,14.39
2022-10-23T06:17:31.979Z,14.52
2022-10-23T06:20:02.511Z,14.59
2022-10-23T06:22:30.802Z,14.57
2022-10-23T06:24:59.927Z,14.68
2022-10-23T06:27:27.952Z,14.79
2022-10-23T06:29:55.876Z,14.90
2022-10-23T06:32:23.275Z,14.97
2022-10-23T06:34:53.183Z,14.96
2022-10-23T06:37:21.651Z,14.95
2022-10-23T06:39:49.816Z,15.09
2022-10-23T06:42:17.602Z,15.21
2022-10-23T06:44:48.412Z,15.29
2022-10-23T06:49:54.662Z,15.50
2022-10-23T06:52:42.079Z,15.61
2022-10-23T06:55:11.371Z,15.74
2022-10-23T06:57:38.928Z,15.70
2022-10-23T07:00:07.241Z,15.87
2022-10-23T07:02:36.706Z,16.01
2022-10-23T07:05:06.757Z,16.07
2022-10-23T07:07:36.898Z,16.14
2022-10-23T07:10:05.261Z,16.16
2022-10-23T07:12:34.323Z,16.30
2022-10-23T07:15:05.538Z,16.41
2022-10-23T07:17:34.086Z,16.47
2022-10-23T07:20:01.636Z,16.53
2022-10-23T07:22:29.432Z,16.59
2022-10-23T07:25:00.960Z,16.65
2022-10-23T07:27:29.090Z,16.94
2022-10-23T07:29:56.714Z,16.62
2022-10-23T07:32:24.750Z,16.63
2022-10-23T07:34:55.294Z,16.84
2022-10-23T07:37:23.482Z,16.69
2022-10-23T07:39:51.317Z,16.41
2022-10-23T07:42:19.034Z,16.67
2022-10-23T07:44:46.747Z,16.92
2022-10-23T07:47:14.195Z,16.96
2022-10-23T07:49:42.738Z,16.86
2022-10-23T07:52:10.316Z,17.30
2022-10-23T07:54:38.907Z,17.17
2022-10-23T07:57:07.780Z,16.71
2022-10-23T07:59:37.900Z,16.86
2022-10-23T08:02:11.850Z,17.40
2022-10-23T08:04:40.118Z,17.29
2022-10-23T08:07:08.098Z,17.41
2022-10-23T08:09:38.081Z,17.64
2022-10-23T08:12:06.189Z,17.65
2022-10-23T08:14:33.718Z,17.98
2022-10-23T08:19:31.964Z,18.18
2022-10-23T08:21:59.525Z,18.33
2022-10-23T08:24:27.043Z,18.52
2022-10-23T08:26:54.829Z,18.63
2022-10-23T08:29:23.123Z,18.65
2022-10-23T08:31:53.727Z,18.98
2022-10-23T08:34:22.306Z,19.10
2022-10-23T08:36:50.533Z,19.11
2022-10-23T08:39:18.387Z,19.23
2022-10-23T08:41:51.581Z,18.90
2022-10-23T08:44:22.783Z,19.06
2022-10-23T08:47:02.936Z,19.30
2022-10-23T08:49:49.278Z,19.22
2022-10-23T08:52:30.376Z,19.34
2022-10-23T08:55:13.026Z,19.53
2022-10-23T08:57:47.432Z,19.29
2022-10-23T09:00:16.701Z,19.66
2022-10-23T09:02:50.842Z,19.61
2022-10-23T09:05:19.771Z,19.74
2022-10-23T09:08:12.907Z,19.82
2022-10-23T09:11:30.674Z,19.61
2022-10-23T09:14:26.756Z,19.75
2022-10-23T09:17:18.947Z,19.53
2022-10-23T09:19:46.802Z,19.90
2022-10-23T09:22:14.388Z,20.01
2022-10-23T09:24:44.880Z,19.70
2022-10-23T09:27:17.045Z,19.00
2022-10-23T09:29:53.770Z,19.55
2022-10-23T09:32:33.621Z,19.47
2022-10-23T09:35:01.149Z,19.76
2022-10-23T09:37:30.909Z,19.26
2022-10-23T09:40:19.200Z,18.94
2022-10-23T09:42:55.838Z,19.38
2022-10-23T09:45:26.047Z,19.71
2022-10-23T09:48:19.451Z,19.75
2022-10-23T09:51:01.323Z,19.16
2022-10-23T09:53:40.594Z,19.74
2022-10-23T09:56:25.604Z,19.51
2022-10-23T09:58:57.064Z,19.45
2022-10-23T10:01:30.703Z,19.43
2022-10-23T10:04:00.466Z,19.55
2022-10-23T10:06:30.505Z,19.66
2022-10-23T10:09:05.250Z,19.57
2022-10-23T10:11:39.228Z,19.33
2022-10-23T10:14:12.513Z,19.21
2022-10-23T10:16:58.466Z,19.43
2022-10-23T10:19:28.868Z,19.06
2022-10-23T10:22:09.609Z,18.97
2022-10-23T10:25:23.234Z,18.71
2022-10-23T10:28:13.716Z,18.87
2022-10-23T10:30:52.013Z,18.20
2022-10-23T10:33:30.810Z,18.53
2022-10-23T10:36:04.802Z,18.97
2022-10-23T10:38:50.526Z,18.63
2022-10-23T10:41:56.045Z,18.81
2022-10-23T10:44:32.691Z,18.55
2022-10-23T10:47:29.772Z,19.06
2022-10-23T10:50:19.647Z,19.18
2022-10-23T10:53:02.637Z,19.05
2022-10-23T10:55:34.352Z,19.07
2022-10-23T10:58:11.362Z,19.11
2022-10-23T11:00:39.134Z,19.44
2022-10-23T11:03:44.937Z,19.59
2022-10-23T11:06:16.172Z,19.17
2022-10-23T11:08:57.153Z,19.18
2022-10-23T11:11:35.341Z,19.23
2022-10-23T11:14:02.962Z,19.34
2022-10-23T11:16:40.074Z,19.04
2022-10-23T11:19:16.527Z,19.40
2022-10-23T11:22:05.286Z,18.88
2022-10-23T11:24:58.429Z,19.54
2022-10-23T11:27:32.247Z,19.52
2022-10-23T11:30:13.129Z,19.39
2022-10-23T11:32:59.695Z,19.41
2022-10-23T11:35:45.406Z,19.41
2022-10-23T11:38:13.003Z,19.55
2022-10-23T11:40:46.307Z,19.26
2022-10-23T11:43:14.147Z,19.28
2022-10-23T11:45:42.240Z,19.10
2022-10-23T11:48:35.725Z,19.26
2022-10-23T11:51:05.188Z,19.21
2022-10-23T11:53:32.762Z,19.76
2022-10-23T11:56:04.315Z,19.53
2022-10-23T11:58:42.518Z,19.78
2022-10-23T12:01:28.878Z,20.00
2022-10-23T12:04:14.311Z,19.99
2022-10-23T12:06:51.042Z,19.75
2022-10-23T12:09:43.398Z,19.88
2022-10-23T12:12:10.848Z,20.43
2022-10-23T12:14:39.869Z,19.97
2022-10-23T12:17:23.969Z,20.29
2022-10-23T12:20:15.985Z,19.76
2022-10-23T12:23:20.995Z,19.63
2022-10-23T12:26:12.651Z,19.44
2022-10-23T12:28:51.361Z,20.12
2022-10-23T12:31:48.808Z,20.51
2022-10-23T12:34:38.542Z,20.28
2022-10-23T12:37:21.571Z,20.01
2022-10-23T12:39:56.514Z,19.94
2022-10-23T12:42:24.825Z,20.27
2022-10-23T12:45:19.278Z,20.15
2022-10-23T12:47:47.637Z,20.35
2022-10-23T12:50:29.776Z,19.79
2022-10-23T12:53:05.995Z,20.25
2022-10-23T12:55:49.091Z,19.85
2022-10-23T12:58:24.497Z,20.40
2022-10-23T13:00:57.396Z,20.45
2022-10-23T13:03:26.498Z,20.32
2022-10-23T13:05:56.075Z,20.17
2022-10-23T13:08:23.742Z,20.18
2022-10-23T13:11:01.265Z,20.21
2022-10-23T13:13:29.244Z,20.22
2022-10-23T13:15:56.949Z,20.22
2022-10-23T13:18:24.798Z,20.09
2022-10-23T13:20:52.289Z,20.13
2022-10-23T13:23:28.845Z,20.08
2022-10-23T13:25:59.082Z,19.98
2022-10-23T13:28:41.232Z,19.77
2022-10-23T13:31:15.168Z,19.51
2022-10-23T13:33:51.015Z,19.87
2022-10-23T13:36:23.804Z,19.62
2022-10-23T13:39:03.830Z,19.86
2022-10-23T13:41:40.798Z,19.72
2022-10-23T13:44:11.548Z,19.52
2022-10-23T13:46:39.519Z,19.63
2022-10-23T13:49:07.154Z,19.26
2022-10-23T13:51:42.495Z,19.41
2022-10-23T13:54:15.653Z,19.55
2022-10-23T13:56:43.252Z,19.41
2022-10-23T13:59:12.548Z,19.39
2022-10-23T14:01:40.623Z,19.50
2022-10-23T14:04:09.423Z,19.31
2022-10-23T14:06:38.251Z,19.34
2022-10-23T14:09:07.227Z,19.39
2022-10-23T14:11:35.177Z,19.48
2022-10-23T14:14:02.769Z,19.41
2022-10-23T14:16:30.547Z,19.27
2022-10-23T14:18:58.576Z,18.71
2022-10-23T14:21:26.131Z,19.11
2022-10-23T14:23:54.158Z,19.24
2022-10-23T14:26:24.946Z,18.91
2022-10-23T14:28:55.837Z,18.98
2022-10-23T14:31:24.110Z,19.11
2022-10-23T14:33:55.970Z,19.10
2022-10-23T14:36:24.598Z,18.92
2022-10-23T14:38:57.678Z,19.24
2022-10-23T14:41:27.153Z,19.17
2022-10-23T14:43:54.848Z,19.21
2022-10-23T14:46:24.334Z,19.18
2022-10-23T14:48:54.955Z,19.18
2022-10-23T14:51:28.230Z,19.17
2022-10-23T14:53:59.566Z,18.98
2022-10-23T14:56:28.350Z,19.21
2022-10-23T14:59:02.663Z,19.19
2022-10-23T15:01:31.989Z,19.27
2022-10-23T15:04:00.918Z,19.15
2022-10-23T15:06:28.518Z,18.92
2022-10-23T15:08:56.023Z,18.81
2022-10-23T15:11:24.519Z,18.82
2022-10-23T15:13:52.927Z,18.83
2022-10-23T15:16:22.204Z,18.82
2022-10-23T15:18:50.065Z,18.96
2022-10-23T15:21:17.903Z,19.11
2022-10-23T15:23:46.327Z,18.99
2022-10-23T15:26:22.869Z,19.03
2022-10-23T15:28:58.900Z,19.27
2022-10-23T15:31:29.815Z,19.37
2022-10-23T15:33:57.902Z,19.36
2022-10-23T15:36:26.746Z,19.28
2022-10-23T15:38:54.988Z,19.31
2022-10-23T15:41:27.876Z,19.42
2022-10-23T15:43:55.908Z,19.54
2022-10-23T15:46:23.350Z,19.58
2022-10-23T15:48:51.374Z,19.64
2022-10-23T15:51:20.015Z,19.66
2022-10-23T15:53:47.481Z,19.70
2022-10-23T15:56:15.152Z,19.70
2022-10-23T15:58:43.285Z,19.61
2022-10-23T16:01:10.960Z,19.67
2022-10-23T16:03:39.188Z,19.71
2022-10-23T16:06:09.104Z,19.63
2022-10-23T16:08:37.286Z,19.51
2022-10-23T16:11:13.967Z,19.47
2022-10-23T16:13:42.896Z,19.72
2022-10-23T16:16:11.039Z,19.60
2022-10-23T16:18:38.825Z,19.34
2022-10-23T16:21:07.534Z,19.66
2022-10-23T16:23:35.389Z,19.35
2022-10-23T16:26:05.166Z,19.06
2022-10-23T16:28:33.219Z,19.53
2022-10-23T16:31:02.289Z,19.66
2022-10-23T16:33:29.794Z,19.81
2022-10-23T16:36:03.232Z,19.77
2022-10-23T16:38:32.053Z,19.44
2022-10-23T16:41:02.454Z,19.67
2022-10-23T16:43:35.522Z,19.85
2022-10-23T16:46:11.879Z,19.82
2022-10-23T16:48:39.637Z,19.68
2022-10-23T16:51:14.823Z,19.74
2022-10-23T16:53:44.503Z,19.77
2022-10-23T16:56:15.325Z,19.94
2022-10-23T16:58:43.536Z,19.94
2022-10-23T17:01:19.611Z,19.98
2022-10-23T17:03:49.686Z,20.02
2022-10-23T17:06:23.776Z,19.97
2022-10-23T17:08:51.941Z,20.01
2022-10-23T17:11:25.203Z,19.97
2022-10-23T17:13:58.670Z,19.95
2022-10-23T17:16:28.631Z,19.97
2022-10-23T17:18:57.487Z,19.98
2022-10-23T17:21:25.190Z,19.95
2022-10-23T17:23:52.964Z,20.00
2022-10-23T17:26:22.185Z,20.07
2022-10-23T17:28:50.044Z,20.04
2022-10-23T17:31:21.805Z,20.05
2022-10-23T17:33:52.197Z,20.07
2022-10-23T17:36:21.297Z,20.02
2022-10-23T17:38:49.565Z,20.05
2022-10-23T17:41:18.731Z,20.07
2022-10-23T17:43:46.760Z,20.02
2022-10-23T17:46:15.625Z,19.98
2022-10-23T17:48:43.700Z,20.00
2022-10-23T17:51:16.558Z,19.98
2022-10-23T17:53:47.199Z,20.01
2022-10-23T17:56:20.288Z,19.98
2022-10-23T17:58:53.172Z,20.01
2022-10-23T18:01:25.069Z,19.92
2022-10-23T18:03:54.356Z,19.92
2022-10-23T18:06:29.660Z,19.96
2022-10-23T18:08:59.730Z,19.89
2022-10-23T18:11:29.877Z,19.90
2022-10-23T18:16:28.191Z,19.92
2022-10-23T18:18:56.270Z,19.83
2022-10-23T18:21:24.955Z,19.83
2022-10-23T18:23:52.818Z,19.55
2022-10-23T18:26:23.514Z,19.65
2022-10-23T18:28:53.503Z,19.57
2022-10-23T18:31:21.224Z,19.63
2022-10-23T18:33:48.906Z,19.62
2022-10-23T18:36:20.709Z,19.71
2022-10-23T18:38:49.810Z,19.67
2022-10-23T18:41:19.026Z,19.69
2022-10-23T18:43:46.665Z,19.75
2022-10-23T18:46:14.632Z,19.65
2022-10-23T18:48:43.572Z,19.67
2022-10-23T18:51:19.949Z,19.70
2022-10-23T18:53:51.318Z,19.53
2022-10-23T18:56:22.962Z,19.62
2022-10-23T18:58:55.127Z,19.65
2022-10-23T19:01:24.879Z,19.46
2022-10-23T19:03:53.599Z,19.46
2022-10-23T19:06:22.371Z,19.44
2022-10-23T19:08:50.334Z,19.48
2022-10-23T19:11:20.495Z,19.45
2022-10-23T19:13:48.309Z,19.49
2022-10-23T19:16:47.103Z,19.51
2022-10-23T19:19:26.767Z,19.49
2022-10-23T19:21:54.849Z,19.51
2022-10-23T19:24:34.414Z,19.54
2022-10-23T19:27:02.721Z,19.18
2022-10-23T19:29:30.887Z,19.22
2022-10-23T19:31:58.623Z,19.22
2022-10-23T19:34:26.530Z,19.39
2022-10-23T19:36:55.284Z,19.47
2022-10-23T19:39:23.291Z,19.44
2022-10-23T19:41:51.715Z,19.43
2022-10-23T19:44:20.627Z,19.29
2022-10-23T19:46:48.798Z,19.11
2022-10-23T19:49:17.257Z,19.23
2022-10-23T19:51:50.934Z,19.09
2022-10-23T19:54:20.432Z,19.28
2022-10-23T19:56:48.689Z,19.38
2022-10-23T19:59:16.595Z,19.43
2022-10-23T20:01:47.760Z,19.42
2022-10-23T20:04:18.331Z,19.32
2022-10-23T20:06:46.663Z,19.27
2022-10-23T20:09:14.342Z,19.17
2022-10-23T20:11:43.492Z,19.16
2022-10-23T20:14:11.709Z,19.09
2022-10-23T20:16:39.869Z,19.08
2022-10-23T20:19:09.628Z,19.17
2022-10-23T20:21:38.776Z,18.88
2022-10-23T20:24:06.895Z,18.63
2022-10-23T20:26:34.965Z,18.72
2022-10-23T20:29:02.584Z,18.77
2022-10-23T20:31:30.269Z,18.77
2022-10-23T20:33:58.156Z,18.69
2022-10-23T20:36:27.409Z,18.51
2022-10-23T20:38:55.695Z,18.37
2022-10-23T20:41:25.038Z,18.36
2022-10-23T20:43:53.002Z,18.66
2022-10-23T20:46:20.615Z,18.76
2022-10-23T20:48:48.643Z,18.78
2022-10-23T20:51:18.347Z,18.39
2022-10-23T20:53:46.192Z,18.33
2022-10-23T20:56:33.825Z,18.27
2022-10-23T20:59:04.571Z,18.19
2022-10-23T21:01:33.429Z,18.13
2022-10-23T21:04:02.659Z,18.03
2022-10-23T21:06:51.502Z,18.30
2022-10-23T21:09:20.337Z,18.54
2022-10-23T21:11:47.790Z,18.74
2022-10-23T21:14:15.246Z,18.81
2022-10-23T21:16:44.622Z,18.76
2022-10-23T21:19:14.679Z,18.96
2022-10-23T21:21:42.722Z,19.03
2022-10-23T21:24:14.058Z,19.13
2022-10-23T21:26:41.739Z,19.01
2022-10-23T21:29:25.015Z,18.90
2022-10-23T21:31:57.976Z,19.00
2022-10-23T21:34:26.256Z,18.98
2022-10-23T21:37:11.905Z,18.94
2022-10-23T21:39:41.755Z,18.77
2022-10-23T21:42:10.291Z,18.25
2022-10-23T21:44:37.733Z,18.47
2022-10-23T21:47:05.513Z,18.59
2022-10-23T21:49:33.268Z,18.70
2022-10-23T21:52:00.744Z,18.74
2022-10-23T21:54:28.222Z,18.71
2022-10-23T21:56:56.022Z,18.58
2022-10-23T21:59:27.596Z,18.63
2022-10-23T22:01:57.877Z,18.61
2022-10-23T22:04:25.940Z,18.63
2022-10-23T22:06:53.665Z,18.25
2022-10-23T22:09:22.046Z,18.25
2022-10-23T22:11:50.874Z,18.50
2022-10-23T22:14:18.406Z,18.76
2022-10-23T22:16:46.656Z,18.89
2022-10-23T22:19:16.299Z,18.92
2022-10-23T22:21:44.126Z,18.98
2022-10-23T22:24:11.840Z,19.02
2022-10-23T22:26:42.588Z,19.10
2022-10-23T22:29:22.576Z,19.08
2022-10-23T22:31:50.610Z,19.08
2022-10-23T22:34:48.313Z,19.13
2022-10-23T22:37:14.481Z,18.80
2022-10-23T22:39:42.257Z,18.69
2022-10-23T22:42:09.808Z,18.90
2022-10-23T22:44:37.584Z,18.72
2022-10-23T22:47:05.140Z,18.64
2022-10-23T22:49:32.629Z,18.67
2022-10-23T22:52:00.340Z,18.59
2022-10-23T22:54:27.877Z,18.33
2022-10-23T22:56:55.294Z,18.56
2022-10-23T22:59:22.965Z,18.63
2022-10-23T23:01:50.531Z,18.64
2022-10-23T23:07:07.875Z,17.88
2022-10-23T23:09:40.137Z,17.92
2022-10-23T23:12:09.010Z,18.07
2022-10-23T23:14:36.869Z,18.02
2022-10-23T23:17:05.017Z,18.02
2022-10-23T23:19:33.043Z,18.00
2022-10-23T23:22:01.081Z,18.27
2022-10-23T23:24:28.644Z,18.37
2022-10-23T23:26:56.319Z,18.50
2022-10-23T23:29:23.792Z,18.57
2022-10-23T23:31:51.368Z,18.55
2022-10-23T23:34:20.068Z,18.46
2022-10-23T23:36:47.547Z,18.39
2022-10-23T23:39:14.980Z,18.47
2022-10-23T23:41:42.812Z,18.34
2022-10-23T23:44:10.367Z,18.38
2022-10-23T23:46:38.189Z,18.22
2022-10-23T23:49:05.907Z,18.19
2022-10-23T23:51:33.399Z,17.81
2022-10-23T23:54:00.878Z,17.88
2022-10-23T23:56:28.655Z,18.01
2022-10-23T23:58:57.708Z,17.69
